地図

経路データ

SID SEASON NUMBER BASIN SUBBASIN NAME ISO_TIME NATURE LAT LON WMO_WIND WMO_PRES WMO_AGENCY TRACK_TYPE DIST2LAND LANDFALL IFLAG USA_AGENCY USA_ATCF_ID USA_LAT USA_LON USA_RECORD USA_STATUS USA_WIND USA_PRES USA_SSHS USA_R34_NE USA_R34_SE USA_R34_SW USA_R34_NW USA_R50_NE USA_R50_SE USA_R50_SW USA_R50_NW USA_R64_NE USA_R64_SE USA_R64_SW USA_R64_NW USA_POCI USA_ROCI USA_RMW USA_EYE TOKYO_LAT TOKYO_LON TOKYO_GRADE TOKYO_WIND TOKYO_PRES TOKYO_R50_DIR TOKYO_R50_LONG TOKYO_R50_SHORT TOKYO_R30_DIR TOKYO_R30_LONG TOKYO_R30_SHORT TOKYO_LAND CMA_LAT CMA_LON CMA_CAT CMA_WIND CMA_PRES HKO_LAT HKO_LON HKO_CAT HKO_WIND HKO_PRES NEWDELHI_LAT NEWDELHI_LON NEWDELHI_GRADE NEWDELHI_WIND NEWDELHI_PRES NEWDELHI_CI NEWDELHI_DP NEWDELHI_POCI REUNION_LAT REUNION_LON REUNION_TYPE REUNION_WIND REUNION_PRES REUNION_TNUM REUNION_CI REUNION_RMW REUNION_R34_NE REUNION_R34_SE REUNION_R34_SW REUNION_R34_NW REUNION_R50_NE REUNION_R50_SE REUNION_R50_SW REUNION_R50_NW REUNION_R64_NE REUNION_R64_SE REUNION_R64_SW REUNION_R64_NW BOM_LAT BOM_LON BOM_TYPE BOM_WIND BOM_PRES BOM_TNUM BOM_CI BOM_RMW BOM_R34_NE BOM_R34_SE BOM_R34_SW BOM_R34_NW BOM_R50_NE BOM_R50_SE BOM_R50_SW BOM_R50_NW BOM_R64_NE BOM_R64_SE BOM_R64_SW BOM_R64_NW BOM_ROCI BOM_POCI BOM_EYE BOM_POS_METHOD BOM_PRES_METHOD NADI_LAT NADI_LON NADI_CAT NADI_WIND NADI_PRES WELLINGTON_LAT WELLINGTON_LON WELLINGTON_WIND WELLINGTON_PRES DS824_LAT DS824_LON DS824_STAGE DS824_WIND DS824_PRES TD9636_LAT TD9636_LON TD9636_STAGE TD9636_WIND TD9636_PRES TD9635_LAT TD9635_LON TD9635_WIND TD9635_PRES TD9635_ROCI NEUMANN_LAT NEUMANN_LON NEUMANN_CLASS NEUMANN_WIND NEUMANN_PRES MLC_LAT MLC_LON MLC_CLASS MLC_WIND MLC_PRES USA_GUST BOM_GUST BOM_GUST_PER REUNION_GUST REUNION_GUST_PER USA_SEAHGT USA_SEARAD_NE USA_SEARAD_SE USA_SEARAD_SW USA_SEARAD_NW STORM_SPEED STORM_DIR
1943253N18136 1943 60 WP MM NOT_NAMED 1943-09-09 12:00:00 NR 18.2000 136.400 main 1348 1348 __________O___ -1 18.2000 136.400 3 7 32
1943253N18136 1943 60 WP MM NOT_NAMED 1943-09-09 15:00:00 NR 18.5006 136.596 main 1383 1383 __________P___ -1 18.5006 136.596 3 7 35
1943253N18136 1943 60 WP MM NOT_NAMED 1943-09-09 18:00:00 NR 18.7810 136.834 main 1417 1417 __________P___ -1 18.7810 136.834 3 7 45
1943253N18136 1943 60 WP MM NOT_NAMED 1943-09-09 21:00:00 NR 19.0209 137.155 main 1465 1465 __________P___ -1 19.0209 137.155 3 8 60
1943253N18136 1943 60 WP MM NOT_NAMED 1943-09-10 00:00:00 NR 19.2000 137.600 main 1488 1488 __________O___ -1 19.2000 137.600 4 10 74
1943253N18136 1943 60 WP MM NOT_NAMED 1943-09-10 03:00:00 NR 19.3082 138.191 main 1508 1508 __________P___ -1 19.3082 138.191 4 12 81
1943253N18136 1943 60 WP MM NOT_NAMED 1943-09-10 06:00:00 NR 19.3798 138.872 main 1534 1534 __________P___ -1 19.3798 138.872 4 13 83
1943253N18136 1943 60 WP MM NOT_NAMED 1943-09-10 09:00:00 NR 19.4613 139.566 main 1561 1561 __________P___ -1 19.4613 139.566 4 13 80
1943253N18136 1943 60 WP MM NOT_NAMED 1943-09-10 12:00:00 NR 19.6000 140.200 main 1584 1580 __________O___ -1 19.6000 140.200 4 11 70
1943253N18136 1943 60 WP MM NOT_NAMED 1943-09-10 15:00:00 NR 19.8469 140.676 main 1594 1571 __________P___ -1 19.8469 140.676 4 10 56
1943253N18136 1943 60 WP MM NOT_NAMED 1943-09-10 18:00:00 NR 20.1585 141.083 main 1564 1542 __________P___ -1 20.1585 141.083 4 10 47
1943253N18136 1943 60 WP MM NOT_NAMED 1943-09-10 21:00:00 NR 20.5159 141.448 main 1542 1515 __________P___ -1 20.5159 141.448 4 10 42
1943253N18136 1943 60 WP MM NOT_NAMED 1943-09-11 00:00:00 NR 20.9000 141.800 main 1515 1490 __________O___ -1 20.9000 141.800 4 10 43
1943253N18136 1943 60 WP MM NOT_NAMED 1943-09-11 03:00:00 NR 21.2784 142.202 main 1490 1467 __________P___ -1 21.2784 142.202 4 11 44
1943253N18136 1943 60 WP MM NOT_NAMED 1943-09-11 06:00:00 NR 21.6775 142.595 main 1467 1440 __________P___ -1 21.6775 142.595 4 11 41
1943253N18136 1943 60 WP MM NOT_NAMED 1943-09-11 09:00:00 NR 22.0879 142.965 main 1445 1419 __________P___ -1 22.0879 142.965 4 11 38
1943253N18136 1943 60 WP MM NOT_NAMED 1943-09-11 12:00:00 NR 22.5000 143.300 main 1419 1386 __________O___ -1 22.5000 143.300 4 10 35
1943253N18136 1943 60 WP MM NOT_NAMED 1943-09-11 15:00:00 NR 22.9065 143.591 main 1386 1348 __________P___ -1 22.9065 143.591 4 10 32
1943253N18136 1943 60 WP MM NOT_NAMED 1943-09-11 18:00:00 NR 23.3075 143.847 main 1348 1314 __________P___ -1 23.3075 143.847 4 9 29
1943253N18136 1943 60 WP MM NOT_NAMED 1943-09-11 21:00:00 NR 23.7047 144.079 main 1314 1277 __________P___ -1 23.7047 144.079 4 9 28
1943253N18136 1943 60 WP MM NOT_NAMED 1943-09-12 00:00:00 NR 24.1000 144.300 main 1277 __________O___ -1 24.1000 144.300 4 9 27

デジタル台風データ・検索

IBTrACS Databaseについて

本データベースは、米国NOAAが公開する1842年以降の世界の熱帯低気圧のベストトラックデータアーカイブInternational Best Track Archive for Climate Stewardship (IBTrACS)を、ウェブで閲覧しやすい形式に変換したものです。

最終更新日:2021-10-08